createdAt,value
2023-02-04T00:02:23.378Z,5.75
2023-02-04T00:04:50.835Z,5.63
2023-02-04T00:10:20.611Z,5.27
2023-02-04T00:12:48.012Z,5.80
2023-02-04T00:15:18.274Z,5.27
2023-02-04T00:17:47.007Z,5.03
2023-02-04T00:23:12.590Z,5.53
2023-02-04T00:25:40.073Z,5.17
2023-02-04T00:28:07.586Z,5.03
2023-02-04T00:30:35.052Z,5.27
2023-02-04T00:33:04.546Z,5.43
2023-02-04T00:35:32.042Z,5.07
2023-02-04T00:37:59.475Z,5.33
2023-02-04T00:40:26.915Z,6.00
2023-02-04T00:42:54.596Z,6.03
2023-02-04T00:45:22.047Z,5.70
2023-02-04T00:47:49.434Z,6.07
2023-02-04T00:50:19.025Z,5.90
2023-02-04T00:55:48.651Z,5.53
2023-02-04T00:58:16.046Z,4.90
2023-02-04T01:00:43.532Z,7.33
2023-02-04T01:03:12.216Z,4.80
2023-02-04T01:08:39.873Z,5.27
2023-02-04T01:11:07.296Z,5.37
2023-02-04T01:13:34.738Z,5.70
2023-02-04T01:16:02.200Z,5.60
2023-02-04T01:18:29.690Z,4.90
2023-02-04T01:23:49.939Z,4.27
2023-02-04T01:26:17.445Z,5.30
2023-02-04T01:28:44.906Z,4.83
2023-02-04T01:31:12.636Z,5.77
2023-02-04T01:33:40.158Z,5.37
2023-02-04T01:36:07.734Z,5.73
2023-02-04T01:38:36.358Z,4.70
2023-02-04T01:41:06.104Z,5.00
2023-02-04T01:43:34.209Z,4.97
2023-02-04T01:46:02.505Z,4.83
2023-02-04T01:48:30.167Z,4.87
2023-02-04T01:51:03.629Z,5.67
2023-02-04T01:53:31.299Z,4.97
2023-02-04T01:55:58.726Z,4.87
2023-02-04T02:01:33.626Z,4.53
2023-02-04T02:04:01.457Z,5.27
2023-02-04T02:06:29.438Z,4.17
2023-02-04T02:08:58.225Z,4.60
2023-02-04T02:11:25.914Z,4.00
2023-02-04T02:13:53.768Z,4.53
2023-02-04T02:16:22.621Z,4.90
2023-02-04T02:18:50.281Z,4.30
2023-02-04T02:21:23.069Z,3.67
2023-02-04T02:23:53.881Z,4.57
2023-02-04T02:26:22.613Z,4.43
2023-02-04T02:28:50.651Z,4.57
2023-02-04T02:31:20.040Z,4.20
2023-02-04T02:33:47.949Z,4.80
2023-02-04T02:36:17.235Z,4.83
2023-02-04T02:41:49.131Z,4.50
2023-02-04T02:44:17.178Z,5.03
2023-02-04T02:46:44.630Z,4.70
2023-02-04T02:49:15.058Z,4.90
2023-02-04T02:51:42.645Z,5.17
2023-02-04T02:54:19.680Z,5.20
2023-02-04T02:56:49.128Z,5.13
2023-02-04T03:02:22.856Z,4.97
2023-02-04T03:04:52.156Z,5.37
2023-02-04T03:07:22.395Z,4.93
2023-02-04T03:09:51.067Z,5.30
2023-02-04T03:12:20.415Z,4.77
2023-02-04T03:14:48.078Z,5.77
2023-02-04T03:17:15.529Z,5.00
2023-02-04T03:22:32.117Z,4.90
2023-02-04T03:24:59.605Z,5.07
2023-02-04T03:27:29.439Z,5.23
2023-02-04T03:29:57.064Z,5.13
2023-02-04T03:35:19.364Z,5.20
2023-02-04T03:37:46.862Z,4.47
2023-02-04T03:40:15.014Z,5.23
2023-02-04T03:42:43.778Z,5.07
2023-02-04T03:45:11.400Z,4.90
2023-02-04T03:47:38.891Z,5.37
2023-02-04T03:50:06.858Z,4.53
2023-02-04T03:52:34.270Z,5.07
2023-02-04T03:55:01.710Z,5.67
2023-02-04T03:57:29.121Z,4.87
2023-02-04T03:59:58.124Z,4.47
2023-02-04T04:02:25.631Z,5.07
2023-02-04T04:04:53.034Z,4.30
2023-02-04T04:07:20.473Z,4.10
2023-02-04T04:09:47.887Z,4.70
2023-02-04T04:14:58.970Z,4.67
2023-02-04T04:20:27.045Z,3.63
2023-02-04T04:22:54.597Z,4.37
2023-02-04T04:25:22.085Z,4.00
2023-02-04T04:27:49.777Z,4.40
2023-02-04T04:30:19.256Z,4.03
2023-02-04T04:32:46.710Z,3.83
2023-02-04T04:35:14.189Z,3.57
2023-02-04T04:37:41.621Z,3.90
2023-02-04T04:40:12.483Z,3.70
2023-02-04T04:42:40.038Z,3.67
2023-02-04T04:45:10.246Z,3.67
2023-02-04T04:47:39.198Z,3.60
2023-02-04T04:50:07.194Z,3.83
2023-02-04T04:52:34.688Z,3.97
2023-02-04T04:55:02.110Z,4.30
2023-02-04T05:00:15.907Z,3.80
2023-02-04T05:02:44.724Z,4.60
2023-02-04T05:05:12.147Z,3.90
2023-02-04T05:07:40.750Z,4.20
2023-02-04T05:10:08.762Z,3.93
2023-02-04T05:12:36.321Z,4.10
2023-02-04T05:15:03.883Z,3.53
2023-02-04T05:17:34.602Z,3.80
2023-02-04T05:20:03.407Z,3.77
2023-02-04T05:22:30.838Z,3.43
2023-02-04T05:24:58.280Z,3.90
2023-02-04T05:27:26.018Z,4.57
2023-02-04T05:29:53.458Z,3.70
2023-02-04T05:32:20.876Z,6.63
2023-02-04T05:34:48.282Z,13.80
2023-02-04T05:37:18.926Z,9.30
2023-02-04T05:42:47.976Z,4.27
2023-02-04T05:48:17.524Z,4.40
2023-02-04T05:50:44.962Z,4.07
2023-02-04T05:53:13.799Z,3.90
2023-02-04T05:55:41.427Z,4.47
2023-02-04T05:58:08.828Z,3.87
2023-02-04T06:00:36.330Z,4.37
2023-02-04T06:03:14.195Z,4.57
2023-02-04T06:05:41.640Z,4.20
2023-02-04T06:08:10.901Z,3.67
2023-02-04T06:10:39.738Z,4.60
2023-02-04T06:13:07.169Z,4.10
2023-02-04T06:15:34.579Z,4.00
2023-02-04T06:18:02.006Z,4.33
2023-02-04T06:20:29.818Z,3.80
2023-02-04T06:25:48.685Z,3.43
2023-02-04T06:28:16.362Z,3.90
2023-02-04T06:30:46.794Z,4.23
2023-02-04T06:33:14.296Z,3.40
2023-02-04T06:38:30.760Z,3.30
2023-02-04T06:40:59.513Z,3.70
2023-02-04T06:43:27.798Z,3.33
2023-02-04T06:45:55.250Z,3.40
2023-02-04T06:48:22.691Z,3.40
2023-02-04T06:50:50.139Z,3.27
2023-02-04T06:53:17.624Z,3.67
2023-02-04T06:55:45.290Z,3.60
2023-02-04T06:58:14.218Z,3.33
2023-02-04T07:00:41.618Z,3.65
2023-02-04T07:03:09.050Z,2.90
2023-02-04T07:05:36.560Z,3.20
2023-02-04T07:08:04.182Z,3.30
2023-02-04T07:10:32.922Z,3.50
2023-02-04T07:13:00.567Z,3.73
2023-02-04T07:18:31.326Z,3.30
2023-02-04T07:20:58.821Z,3.43
2023-02-04T07:23:27.968Z,3.33
2023-02-04T07:25:56.256Z,3.57
2023-02-04T07:28:23.759Z,3.63
2023-02-04T07:30:51.507Z,3.23
2023-02-04T07:33:19.040Z,3.80
2023-02-04T07:35:47.785Z,2.97
2023-02-04T07:38:15.212Z,3.50
2023-02-04T07:40:42.610Z,3.00
2023-02-04T07:43:11.421Z,3.53
2023-02-04T07:45:39.436Z,3.87
2023-02-04T07:48:06.966Z,4.00
2023-02-04T07:50:34.992Z,3.97
2023-02-04T07:53:04.238Z,3.90
2023-02-04T07:55:31.672Z,4.47
2023-02-04T07:57:59.134Z,4.90
2023-02-04T08:00:26.594Z,4.03
2023-02-04T08:02:54.020Z,4.33
2023-02-04T08:05:21.464Z,4.40
2023-02-04T08:07:48.906Z,3.90
2023-02-04T08:10:17.960Z,4.30
2023-02-04T08:12:46.451Z,3.83
2023-02-04T08:15:13.864Z,4.60
2023-02-04T08:17:41.273Z,3.53
2023-02-04T08:20:09.553Z,3.60
2023-02-04T08:22:36.966Z,3.73
2023-02-04T08:28:18.110Z,4.37
2023-02-04T08:30:45.708Z,4.57
2023-02-04T08:33:13.154Z,4.50
2023-02-04T08:35:40.602Z,4.70
2023-02-04T08:38:08.022Z,4.87
2023-02-04T08:43:39.777Z,5.70
2023-02-04T08:46:07.337Z,4.93
2023-02-04T08:48:34.750Z,5.13
2023-02-04T08:51:36.419Z,5.10
2023-02-04T08:54:03.934Z,6.30
2023-02-04T08:56:31.399Z,5.63
2023-02-04T08:59:00.214Z,6.20
2023-02-04T09:01:27.738Z,5.73
2023-02-04T09:03:55.145Z,6.10
2023-02-04T09:09:26.430Z,5.90
2023-02-04T09:11:53.874Z,5.53
2023-02-04T09:14:22.699Z,5.47
2023-02-04T09:16:50.228Z,5.70
2023-02-04T09:19:23.826Z,4.60
2023-02-04T09:21:51.272Z,4.80
2023-02-04T09:24:18.839Z,4.70
2023-02-04T09:26:46.320Z,5.03
2023-02-04T09:32:26.853Z,4.50
2023-02-04T09:37:56.522Z,4.50
2023-02-04T09:40:24.349Z,4.30
2023-02-04T09:42:52.752Z,4.20
2023-02-04T09:45:22.763Z,4.70
2023-02-04T09:47:52.290Z,3.77
2023-02-04T09:50:24.283Z,3.80
2023-02-04T09:52:52.695Z,3.77
2023-02-04T09:55:21.703Z,4.30
2023-02-04T09:57:49.374Z,4.53
2023-02-04T10:00:20.098Z,4.50
2023-02-04T10:02:47.688Z,4.10
2023-02-04T10:08:17.344Z,4.37
2023-02-04T10:10:45.512Z,4.03
2023-02-04T10:16:17.086Z,4.43
2023-02-04T10:18:45.162Z,3.83
2023-02-04T10:21:17.662Z,4.80
2023-02-04T10:23:55.384Z,4.40
2023-02-04T10:26:24.054Z,4.53
2023-02-04T10:28:51.516Z,4.60
2023-02-04T10:31:35.821Z,4.30
2023-02-04T10:34:05.164Z,5.23
2023-02-04T10:36:32.659Z,4.70
2023-02-04T10:39:02.226Z,4.83
2023-02-04T10:41:29.672Z,4.90
2023-02-04T10:44:04.818Z,5.00
2023-02-04T10:46:33.334Z,5.10
2023-02-04T10:49:00.896Z,4.20
2023-02-04T10:51:28.886Z,4.50
2023-02-04T10:54:13.886Z,4.77
2023-02-04T10:56:42.657Z,5.10
2023-02-04T10:59:21.175Z,5.13
2023-02-04T11:01:48.599Z,5.20
2023-02-04T11:04:16.039Z,4.87
2023-02-04T11:06:43.431Z,5.00
2023-02-04T11:09:48.772Z,5.20
2023-02-04T11:12:22.770Z,4.90
2023-02-04T11:17:38.506Z,5.80
2023-02-04T11:20:16.190Z,4.90
2023-02-04T11:22:44.957Z,5.70
2023-02-04T11:25:39.456Z,5.10
2023-02-04T11:28:16.024Z,4.80
2023-02-04T11:30:43.595Z,5.00
2023-02-04T11:33:25.101Z,4.50
2023-02-04T11:36:02.188Z,5.40
2023-02-04T11:38:32.131Z,4.80
2023-02-04T11:41:00.540Z,4.90
2023-02-04T11:43:30.297Z,5.00
2023-02-04T11:46:06.496Z,5.17
2023-02-04T11:48:37.211Z,4.97
2023-02-04T11:51:12.772Z,5.50
2023-02-04T11:53:40.262Z,5.10
2023-02-04T11:56:07.986Z,5.00
2023-02-04T11:58:39.825Z,5.27
2023-02-04T12:01:17.790Z,5.20
2023-02-04T12:03:48.046Z,5.47
2023-02-04T12:09:26.047Z,5.90
2023-02-04T12:11:54.511Z,4.93
2023-02-04T12:14:23.421Z,5.30
2023-02-04T12:16:52.272Z,5.50
2023-02-04T12:19:19.961Z,5.40
2023-02-04T12:21:47.382Z,5.50
2023-02-04T12:24:14.905Z,4.73
2023-02-04T12:26:42.318Z,5.17
2023-02-04T12:31:59.847Z,5.20
2023-02-04T12:34:27.281Z,5.20
2023-02-04T12:39:51.007Z,5.27
2023-02-04T12:42:18.414Z,6.20
2023-02-04T12:44:49.224Z,5.27
2023-02-04T12:47:18.084Z,4.87
2023-02-04T12:49:46.515Z,5.10
2023-02-04T12:52:13.963Z,5.30
2023-02-04T12:57:11.531Z,4.53
2023-02-04T12:59:38.996Z,5.87
2023-02-04T13:02:06.626Z,5.60
2023-02-04T13:07:33.909Z,4.70
2023-02-04T13:10:01.604Z,5.00
2023-02-04T13:12:29.106Z,4.53
2023-02-04T13:14:56.545Z,4.60
2023-02-04T13:17:23.975Z,5.10
2023-02-04T13:22:54.818Z,4.90
2023-02-04T13:25:22.282Z,5.20
2023-02-04T13:27:49.980Z,4.90
2023-02-04T13:30:17.783Z,5.60
2023-02-04T13:32:45.263Z,4.80
2023-02-04T13:35:14.209Z,5.07
2023-02-04T13:37:41.599Z,4.97
2023-02-04T13:40:12.144Z,5.27
2023-02-04T13:45:47.445Z,5.33
2023-02-04T13:48:15.138Z,5.30
2023-02-04T13:50:42.598Z,5.27
2023-02-04T13:53:10.168Z,4.97
2023-02-04T13:55:38.941Z,5.00
2023-02-04T13:58:09.900Z,5.30
2023-02-04T14:00:37.366Z,5.00
2023-02-04T14:03:05.110Z,5.33
2023-02-04T14:05:32.545Z,5.33
2023-02-04T14:07:59.988Z,5.30
2023-02-04T14:10:27.518Z,5.30
2023-02-04T14:13:23.517Z,5.45
2023-02-04T14:15:52.306Z,5.27
2023-02-04T14:18:21.051Z,5.47
2023-02-04T14:20:48.506Z,5.10
2023-02-04T14:23:15.960Z,4.93
2023-02-04T14:25:43.440Z,5.33
2023-02-04T14:28:11.003Z,5.17
2023-02-04T14:30:42.276Z,5.00
2023-02-04T14:33:11.071Z,4.97
2023-02-04T14:35:38.533Z,6.30
2023-02-04T14:41:08.504Z,5.03
2023-02-04T14:43:37.150Z,5.40
2023-02-04T14:46:05.821Z,5.00
2023-02-04T14:48:35.306Z,5.33
2023-02-04T14:51:02.757Z,5.17
2023-02-04T14:56:32.513Z,5.07
2023-02-04T14:58:59.927Z,5.30
2023-02-04T15:01:27.693Z,6.00
2023-02-04T15:03:56.478Z,5.00
2023-02-04T15:06:23.955Z,5.33
2023-02-04T15:08:51.413Z,5.07
2023-02-04T15:11:18.911Z,5.10
2023-02-04T15:16:35.159Z,4.87
2023-02-04T15:19:03.976Z,5.00
2023-02-04T15:21:31.546Z,4.70
2023-02-04T15:23:58.968Z,5.13
2023-02-04T15:26:26.444Z,4.67
2023-02-04T15:28:55.526Z,5.57
2023-02-04T15:34:06.175Z,5.20
2023-02-04T15:36:33.720Z,5.90
2023-02-04T15:39:01.181Z,5.30
2023-02-04T15:41:28.555Z,5.80
2023-02-04T15:43:56.016Z,5.60
2023-02-04T15:46:24.020Z,6.33
2023-02-04T15:48:51.527Z,5.40
2023-02-04T15:51:20.325Z,5.67
2023-02-04T15:53:47.771Z,5.90
2023-02-04T15:56:15.183Z,6.13
2023-02-04T16:01:41.549Z,5.70
2023-02-04T16:04:09.669Z,5.73
2023-02-04T16:06:41.277Z,5.93
2023-02-04T16:12:12.771Z,5.90
2023-02-04T16:14:40.190Z,5.57
2023-02-04T16:17:09.546Z,6.00
2023-02-04T16:19:37.038Z,5.90
2023-02-04T16:22:06.174Z,5.83
2023-02-04T16:24:33.639Z,6.00
2023-02-04T16:27:01.104Z,6.07
2023-02-04T16:29:29.962Z,7.03
2023-02-04T16:31:57.622Z,6.80
2023-02-04T16:34:25.263Z,5.90
2023-02-04T16:36:52.767Z,5.80
2023-02-04T16:39:31.689Z,5.60
2023-02-04T16:41:59.116Z,5.40
2023-02-04T16:44:26.652Z,4.87
2023-02-04T16:46:54.865Z,4.97
2023-02-04T16:49:23.110Z,4.73
2023-02-04T16:51:50.505Z,5.00
2023-02-04T16:54:18.090Z,4.50
2023-02-04T16:56:47.362Z,5.07
2023-02-04T16:59:14.786Z,4.80
2023-02-04T17:01:42.334Z,8.00
2023-02-04T17:04:09.948Z,6.20
2023-02-04T17:06:37.362Z,6.37
2023-02-04T17:09:05.057Z,6.17
2023-02-04T17:11:32.632Z,6.10
2023-02-04T17:14:02.764Z,7.30
2023-02-04T17:16:55.344Z,6.90
2023-02-04T17:19:22.867Z,6.43
2023-02-04T17:24:52.557Z,6.60
2023-02-04T17:27:19.977Z,6.60
2023-02-04T17:29:48.809Z,6.57
2023-02-04T17:32:16.242Z,7.00
2023-02-04T17:34:43.674Z,7.00
2023-02-04T17:37:11.247Z,7.47
2023-02-04T17:39:38.673Z,7.83
2023-02-04T17:42:06.601Z,8.00
2023-02-04T17:44:34.036Z,6.50
2023-02-04T17:47:03.156Z,6.97
2023-02-04T17:49:33.524Z,6.80
2023-02-04T17:55:10.117Z,6.60
2023-02-04T17:57:40.943Z,7.20
2023-02-04T18:00:14.250Z,8.10
2023-02-04T18:02:44.861Z,7.60
2023-02-04T18:05:15.046Z,8.50
2023-02-04T18:07:45.928Z,8.27
2023-02-04T18:10:22.187Z,8.60
2023-02-04T18:12:49.660Z,7.50
2023-02-04T18:15:26.406Z,7.80
2023-02-04T18:17:58.518Z,7.90
2023-02-04T18:20:26.334Z,7.33
2023-02-04T18:25:52.547Z,6.77
2023-02-04T18:28:21.750Z,7.27
2023-02-04T18:30:52.455Z,7.63
2023-02-04T18:33:24.744Z,6.73
2023-02-04T18:38:46.006Z,7.17
2023-02-04T18:44:25.268Z,7.70
2023-02-04T18:46:52.700Z,7.60
2023-02-04T18:49:33.881Z,7.83
2023-02-04T18:55:03.689Z,7.90
2023-02-04T18:57:36.869Z,7.57
2023-02-04T19:03:21.877Z,7.80
2023-02-04T19:05:51.587Z,9.07
2023-02-04T19:08:26.123Z,8.63
2023-02-04T19:10:54.816Z,9.00
2023-02-04T19:13:25.582Z,9.80
2023-02-04T19:15:58.685Z,9.43
2023-02-04T19:18:28.619Z,8.27
2023-02-04T19:21:02.693Z,7.77
2023-02-04T19:23:36.974Z,7.43
2023-02-04T19:28:45.050Z,6.87
2023-02-04T19:31:13.958Z,6.00
2023-02-04T19:33:45.232Z,6.10
2023-02-04T19:36:24.591Z,5.60
2023-02-04T19:41:54.480Z,5.40
2023-02-04T19:44:35.391Z,5.43
2023-02-04T19:47:26.752Z,5.37
2023-02-04T19:50:01.839Z,6.67
2023-02-04T19:52:35.315Z,6.20
2023-02-04T19:58:19.398Z,6.50
2023-02-04T20:00:51.940Z,11.27
2023-02-04T20:03:28.054Z,8.67
2023-02-04T20:05:56.029Z,7.63
2023-02-04T20:08:42.195Z,8.60
2023-02-04T20:11:36.298Z,7.53
2023-02-04T20:14:19.142Z,7.70
2023-02-04T20:16:49.900Z,6.83
2023-02-04T20:19:20.783Z,7.17
2023-02-04T20:22:04.093Z,9.40
2023-02-04T20:24:35.746Z,9.17
2023-02-04T20:27:05.752Z,8.37
2023-02-04T20:29:35.142Z,6.37
2023-02-04T20:32:09.245Z,4.90
2023-02-04T20:34:36.674Z,5.67
2023-02-04T20:40:20.761Z,5.47
2023-02-04T20:42:49.913Z,6.20
2023-02-04T20:45:33.820Z,6.57
2023-02-04T20:48:03.434Z,7.07
2023-02-04T20:50:41.931Z,7.20
2023-02-04T20:53:28.018Z,7.50
2023-02-04T20:56:03.524Z,6.50
2023-02-04T20:58:35.620Z,7.40
2023-02-04T21:01:30.282Z,9.60
2023-02-04T21:03:59.207Z,11.20
2023-02-04T21:06:28.442Z,10.43
2023-02-04T21:08:57.613Z,15.63
2023-02-04T21:11:26.996Z,10.50
2023-02-04T21:13:55.340Z,9.43
2023-02-04T21:16:22.874Z,9.93
2023-02-04T21:18:50.595Z,10.00
2023-02-04T21:21:20.118Z,9.00
2023-02-04T21:23:47.605Z,11.20
2023-02-04T21:26:15.815Z,11.23
2023-02-04T21:31:46.826Z,14.70
2023-02-04T21:34:15.651Z,14.27
2023-02-04T21:36:43.078Z,14.60
2023-02-04T21:39:10.491Z,14.87
2023-02-04T21:41:37.907Z,15.93
2023-02-04T21:44:05.753Z,15.97
2023-02-04T21:46:33.352Z,17.37
2023-02-04T21:51:53.316Z,20.40
2023-02-04T21:54:20.767Z,22.27
2023-02-04T21:56:48.158Z,12.80
2023-02-04T21:59:18.610Z,10.50
2023-02-04T22:04:34.471Z,9.93
2023-02-04T22:07:03.255Z,9.67
2023-02-04T22:09:30.685Z,9.10
2023-02-04T22:11:58.141Z,10.40
2023-02-04T22:14:26.097Z,10.07
2023-02-04T22:19:44.587Z,10.20
2023-02-04T22:22:13.802Z,9.97
2023-02-04T22:24:41.234Z,9.73
2023-02-04T22:27:08.628Z,9.67
2023-02-04T22:29:36.045Z,10.17
2023-02-04T22:32:03.485Z,10.43
2023-02-04T22:34:31.327Z,11.20
2023-02-04T22:36:59.054Z,11.33
2023-02-04T22:39:27.831Z,10.63
2023-02-04T22:44:55.481Z,9.37
2023-02-04T22:47:22.882Z,9.70
2023-02-04T22:49:50.314Z,9.87
2023-02-04T22:52:18.049Z,9.80
2023-02-04T22:54:46.828Z,9.70
2023-02-04T22:57:14.262Z,10.50
2023-02-04T22:59:41.702Z,12.03
2023-02-04T23:02:09.150Z,13.87
2023-02-04T23:04:36.786Z,13.57
2023-02-04T23:07:04.785Z,11.57
2023-02-04T23:12:35.811Z,11.03
2023-02-04T23:15:03.302Z,9.20
2023-02-04T23:17:30.780Z,10.10
2023-02-04T23:19:58.271Z,10.07
2023-02-04T23:25:17.119Z,10.57
2023-02-04T23:27:45.889Z,10.93
2023-02-04T23:30:14.393Z,9.57
2023-02-04T23:32:42.430Z,10.43
2023-02-04T23:35:10.177Z,10.13
2023-02-04T23:37:37.595Z,10.43
2023-02-04T23:43:02.298Z,9.97
2023-02-04T23:45:29.742Z,9.90
2023-02-04T23:47:57.221Z,9.60
2023-02-04T23:50:24.934Z,9.97
2023-02-04T23:52:52.402Z,8.53
2023-02-04T23:55:19.856Z,8.47
2023-02-04T23:57:49.485Z,9.60
